Clear with few low clouds and few cirrus
Overcast
Overcast
Overcast
Overcast
Overcast
Overcast
(°F)
48°
48°
47°
47°
46°
47°
47°
(°F)
44°
44°
43°
43°
43°
44°
44°
S
SSE
S
SSE
SSE
SSE
SSE
(mph)
5-16
4-15
4-15
4-12
3-13
3-13
3-12
(in)
0
0
0
0
0
0
0
(%)
16
11
17
10
9
9
9

Sun elevation

/ -55.8°
sun-icon
UV 1
06:49
15:58
Full moon (185°)
15:53
07:15

METAR for Niš (LYNI)

Time Conditions Temperature/
Dewpoint
Wind Visibility Weather Clouds Pressure Change Raw
MVFR 48.2°F / 48.2°F 110º 4kt 8000m shallow Fog Vertical Visibility of 0ft. 1014 Temporary: Visibility 4000. Mist . LYNI 082000Z 11004KT 8000 MIFG NSC 09/09 Q1014 TEMPO 4000 BR
VFR 48.2°F / 48.2°F 110º 3kt >10km shallow Fog Vertical Visibility of 0ft. 1014 Temporary: Visibility 4000. Mist . LYNI 081930Z 11003KT 9999 MIFG FEW043 09/09 Q1014 TEMPO 4000 BR
VFR 48.2°F / 48.2°F 150º variable 120º to 180º 3kt >10km - Few Clouds 4300ft 1013 No Significant change LYNI 081900Z 15003KT 120V180 9999 FEW043 09/09 Q1013 NOSIG
VFR 50°F / 50°F 110º 4kt >10km - Few Clouds 5000ft 1013 No Significant change LYNI 081830Z 11004KT 9999 FEW050 10/10 Q1013 NOSIG
VFR 50°F / 50°F 120º variable 090º to 150º 6kt >10km - Few Clouds 5000ft 1013 No Significant change LYNI 081800Z 12006KT 090V150 9999 FEW050 10/10 Q1013 NOSIG
VFR 50°F / 50°F 90º 4kt >10km Light Rain 1.00mm precipitation Vertical Visibility of 0ft.
Broken Clouds 5000ft
1013 No Significant change LYNI 081730Z 09004KT 9999 -RA FEW033 BKN050 10/10 Q1013 NOSIG
VFR 50°F / 50°F 90º 5kt >10km Light Rain 1.00mm precipitation Vertical Visibility of 0ft. 1013 No Significant change LYNI 081700Z 09005KT 9999 -RA BKN045 10/10 Q1013 RERA NOSIG
MVFR 50°F / 50°F 100º 6kt 8000m Rain 3.00mm precipitation Vertical Visibility of 0ft. 1013 No Significant change LYNI 081630Z 10006KT 8000 RA BKN045 10/10 Q1013 NOSIG
VFR 50°F / 50°F 120º 6kt >10km Light Rain 1.00mm precipitation Vertical Visibility of 0ft. 1012 No Significant change LYNI 081600Z 12006KT 9999 -RA BKN045 10/10 Q1012 RERA NOSIG
MVFR 50°F / 50°F 100º 5kt 6000m Heavy Rain 7.00mm precipitation Vertical Visibility of 0ft. 1013 No Significant change LYNI 081530Z 10005KT 6000 +RA BKN045 10/10 Q1013 NOSIG
MVFR 51.8°F / 51.8°F variable 1kt 8000m Rain 3.00mm precipitation Vertical Visibility of 0ft. 1013 Temporary: Visibility 5000. LYNI 081500Z VRB01KT 8000 RA BKN050 11/11 Q1013 TEMPO 5000
VFR 51.8°F / 51.8°F variable 1kt >10km Rain 3.00mm precipitation Vertical Visibility of 0ft. 1013 Temporary: Visibility 5000. LYNI 081430Z VRB01KT 9999 RA BKN050 11/11 Q1013 TEMPO 5000
VFR 53.6°F / 51.8°F 190º 1kt >10km Light Rain 1.00mm precipitation Vertical Visibility of 0ft. 1012 No Significant change LYNI 081400Z 19001KT 9999 -RA BKN050 12/11 Q1012 NOSIG
VFR 53.6°F / 50°F 130º 2kt >10km Light Rain 1.00mm precipitation Vertical Visibility of 0ft.
Broken Clouds 5400ft
1012 No Significant change LYNI 081330Z 13002KT 9999 -RA FEW033 BKN054 12/10 Q1012 NOSIG
VFR 55.4°F / 48.2°F 130º 2kt >10km Light Rain 1.00mm precipitation Vertical Visibility of 0ft.
Scattered Clouds 5400ft
1012 No Significant change LYNI 081300Z 13002KT 9999 -RA FEW033 SCT054 13/09 Q1012 NOSIG
VFR 55.4°F / 48.2°F 120º 4kt >10km Light Rain 1.00mm precipitation Vertical Visibility of 0ft.
Scattered Clouds 6000ft
1012 No Significant change LYNI 081230Z 12004KT 9999 -RA FEW033 SCT060 13/09 Q1012 NOSIG
VFR 55.4°F / 48.2°F 110º variable 080º to 140º 3kt >10km - Few Clouds 3300ft
Scattered Clouds 6000ft
1012 No Significant change LYNI 081200Z 11003KT 080V140 9999 FEW033 SCT060 13/09 Q1012 NOSIG
VFR 53.6°F / 48.2°F 110º variable 070º to 160º 3kt >10km - Few Clouds 3300ft 1013 No Significant change LYNI 081130Z 11003KT 070V160 9999 FEW033 12/09 Q1013 NOSIG
VFR 50°F / 50°F 150º variable 100º to 200º 3kt >10km - Few Clouds 3300ft 1013 No Significant change LYNI 081100Z 15003KT 100V200 9999 FEW033 10/10 Q1013 NOSIG
VFR 50°F / 50°F 190º variable 150º to 240º 3kt >10km - Clouds and Visibility OK 1014 No Significant change LYNI 081030Z 19003KT 150V240 CAVOK 10/10 Q1014 NOSIG
VFR 48.2°F / 48.2°F 160º variable 120º to 220º 4kt >10km - Clouds and Visibility OK 1014 No Significant change LYNI 081000Z 16004KT 120V220 CAVOK 09/09 Q1014 NOSIG
MVFR 46.4°F / 46.4°F 190º variable 140º to 220º 3kt 8000m - Few Clouds 3000ft 1014 No Significant change LYNI 080930Z 19003KT 140V220 8000 FEW030 08/08 Q1014 NOSIG
MVFR 44.6°F / 44.6°F variable 1kt 8000m - Few Clouds 400ft
Scattered Clouds 5000ft
1015 No Significant change LYNI 080900Z VRB01KT 8000 FEW004 SCT050 07/07 Q1015 NOSIG
MVFR 44.6°F / 44.6°F variable 2kt 8000m - Few Clouds 400ft
Broken Clouds 5000ft
1015 No Significant change LYNI 080830Z VRB02KT 8000 FEW004 BKN050 07/07 Q1015 NOSIG

MVFR

48.2°F / 48.2°F

[More]
Wind 110º 4kt
Visibility 8000m
Weather shallow Fog
Clouds Vertical Visibility of 0ft.
Pressure 1014
Change Temporary: Visibility 4000. Mist .
Raw LYNI 082000Z 11004KT 8000 MIFG NSC 09/09 Q1014 TEMPO 4000 BR

VFR

48.2°F / 48.2°F

[More]
Wind 110º 3kt
Visibility >10km
Weather shallow Fog
Clouds Vertical Visibility of 0ft.
Pressure 1014
Change Temporary: Visibility 4000. Mist .
Raw LYNI 081930Z 11003KT 9999 MIFG FEW043 09/09 Q1014 TEMPO 4000 BR

VFR

48.2°F / 48.2°F

[More]
Wind 150º variable 120º to 180º 3kt
Visibility >10km
Weather -
Clouds Few Clouds 4300ft
Pressure 1013
Change No Significant change
Raw LYNI 081900Z 15003KT 120V180 9999 FEW043 09/09 Q1013 NOSIG

VFR

50°F / 50°F

[More]
Wind 110º 4kt
Visibility >10km
Weather -
Clouds Few Clouds 5000ft
Pressure 1013
Change No Significant change
Raw LYNI 081830Z 11004KT 9999 FEW050 10/10 Q1013 NOSIG

VFR

50°F / 50°F

[More]
Wind 120º variable 090º to 150º 6kt
Visibility >10km
Weather -
Clouds Few Clouds 5000ft
Pressure 1013
Change No Significant change
Raw LYNI 081800Z 12006KT 090V150 9999 FEW050 10/10 Q1013 NOSIG

VFR

50°F / 50°F

[More]
Wind 90º 4kt
Visibility >10km
Weather Light Rain 1.00mm precipitation
Clouds Vertical Visibility of 0ft.
Broken Clouds 5000ft
Pressure 1013
Change No Significant change
Raw LYNI 081730Z 09004KT 9999 -RA FEW033 BKN050 10/10 Q1013 NOSIG

VFR

50°F / 50°F

[More]
Wind 90º 5kt
Visibility >10km
Weather Light Rain 1.00mm precipitation
Clouds Vertical Visibility of 0ft.
Pressure 1013
Change No Significant change
Raw LYNI 081700Z 09005KT 9999 -RA BKN045 10/10 Q1013 RERA NOSIG

MVFR

50°F / 50°F

[More]
Wind 100º 6kt
Visibility 8000m
Weather Rain 3.00mm precipitation
Clouds Vertical Visibility of 0ft.
Pressure 1013
Change No Significant change
Raw LYNI 081630Z 10006KT 8000 RA BKN045 10/10 Q1013 NOSIG

VFR

50°F / 50°F

[More]
Wind 120º 6kt
Visibility >10km
Weather Light Rain 1.00mm precipitation
Clouds Vertical Visibility of 0ft.
Pressure 1012
Change No Significant change
Raw LYNI 081600Z 12006KT 9999 -RA BKN045 10/10 Q1012 RERA NOSIG

MVFR

50°F / 50°F

[More]
Wind 100º 5kt
Visibility 6000m
Weather Heavy Rain 7.00mm precipitation
Clouds Vertical Visibility of 0ft.
Pressure 1013
Change No Significant change
Raw LYNI 081530Z 10005KT 6000 +RA BKN045 10/10 Q1013 NOSIG

MVFR

51.8°F / 51.8°F

[More]
Wind variable 1kt
Visibility 8000m
Weather Rain 3.00mm precipitation
Clouds Vertical Visibility of 0ft.
Pressure 1013
Change Temporary: Visibility 5000.
Raw LYNI 081500Z VRB01KT 8000 RA BKN050 11/11 Q1013 TEMPO 5000

VFR

51.8°F / 51.8°F

[More]
Wind variable 1kt
Visibility >10km
Weather Rain 3.00mm precipitation
Clouds Vertical Visibility of 0ft.
Pressure 1013
Change Temporary: Visibility 5000.
Raw LYNI 081430Z VRB01KT 9999 RA BKN050 11/11 Q1013 TEMPO 5000

VFR

53.6°F / 51.8°F

[More]
Wind 190º 1kt
Visibility >10km
Weather Light Rain 1.00mm precipitation
Clouds Vertical Visibility of 0ft.
Pressure 1012
Change No Significant change
Raw LYNI 081400Z 19001KT 9999 -RA BKN050 12/11 Q1012 NOSIG

VFR

53.6°F / 50°F

[More]
Wind 130º 2kt
Visibility >10km
Weather Light Rain 1.00mm precipitation
Clouds Vertical Visibility of 0ft.
Broken Clouds 5400ft
Pressure 1012
Change No Significant change
Raw LYNI 081330Z 13002KT 9999 -RA FEW033 BKN054 12/10 Q1012 NOSIG

VFR

55.4°F / 48.2°F

[More]
Wind 130º 2kt
Visibility >10km
Weather Light Rain 1.00mm precipitation
Clouds Vertical Visibility of 0ft.
Scattered Clouds 5400ft
Pressure 1012
Change No Significant change
Raw LYNI 081300Z 13002KT 9999 -RA FEW033 SCT054 13/09 Q1012 NOSIG

VFR

55.4°F / 48.2°F

[More]
Wind 120º 4kt
Visibility >10km
Weather Light Rain 1.00mm precipitation
Clouds Vertical Visibility of 0ft.
Scattered Clouds 6000ft
Pressure 1012
Change No Significant change
Raw LYNI 081230Z 12004KT 9999 -RA FEW033 SCT060 13/09 Q1012 NOSIG

VFR

55.4°F / 48.2°F

[More]
Wind 110º variable 080º to 140º 3kt
Visibility >10km
Weather -
Clouds Few Clouds 3300ft
Scattered Clouds 6000ft
Pressure 1012
Change No Significant change
Raw LYNI 081200Z 11003KT 080V140 9999 FEW033 SCT060 13/09 Q1012 NOSIG

VFR

53.6°F / 48.2°F

[More]
Wind 110º variable 070º to 160º 3kt
Visibility >10km
Weather -
Clouds Few Clouds 3300ft
Pressure 1013
Change No Significant change
Raw LYNI 081130Z 11003KT 070V160 9999 FEW033 12/09 Q1013 NOSIG

VFR

50°F / 50°F

[More]
Wind 150º variable 100º to 200º 3kt
Visibility >10km
Weather -
Clouds Few Clouds 3300ft
Pressure 1013
Change No Significant change
Raw LYNI 081100Z 15003KT 100V200 9999 FEW033 10/10 Q1013 NOSIG

VFR

50°F / 50°F

[More]
Wind 190º variable 150º to 240º 3kt
Visibility >10km
Weather -
Clouds Clouds and Visibility OK
Pressure 1014
Change No Significant change
Raw LYNI 081030Z 19003KT 150V240 CAVOK 10/10 Q1014 NOSIG

VFR

48.2°F / 48.2°F

[More]
Wind 160º variable 120º to 220º 4kt
Visibility >10km
Weather -
Clouds Clouds and Visibility OK
Pressure 1014
Change No Significant change
Raw LYNI 081000Z 16004KT 120V220 CAVOK 09/09 Q1014 NOSIG

MVFR

46.4°F / 46.4°F

[More]
Wind 190º variable 140º to 220º 3kt
Visibility 8000m
Weather -
Clouds Few Clouds 3000ft
Pressure 1014
Change No Significant change
Raw LYNI 080930Z 19003KT 140V220 8000 FEW030 08/08 Q1014 NOSIG

MVFR

44.6°F / 44.6°F

[More]
Wind variable 1kt
Visibility 8000m
Weather -
Clouds Few Clouds 400ft
Scattered Clouds 5000ft
Pressure 1015
Change No Significant change
Raw LYNI 080900Z VRB01KT 8000 FEW004 SCT050 07/07 Q1015 NOSIG

MVFR

44.6°F / 44.6°F

[More]
Wind variable 2kt
Visibility 8000m
Weather -
Clouds Few Clouds 400ft
Broken Clouds 5000ft
Pressure 1015
Change No Significant change
Raw LYNI 080830Z VRB02KT 8000 FEW004 BKN050 07/07 Q1015 NOSIG

TAF for Niš (LYNI)

From till


Maximum Temperature 13ºC on . Minimum Temperature 7ºC on .
From till Wind 140º 5kt. Visibility 8000m. Scattered Clouds 4500ft.
Temporarly from till Visibility 3000m. Mist .

Raw: TAF LYNI 081700Z 0818/0918 14005KT 8000 SCT045 TX13/0912Z TN07/0906Z TEMPO 0821/0906 3000 BR

Radar and precipitation nowcast for Niš

Drizzle
Light
Moderate
Heavy
Very Heavy
Hail

The location marker is placed on Niš. This animation shows the precipitation radar for the last 1 hour. Drizzle or light snow fall might be invisible for the radar. Precipitation intensity is colour coded, ranging from light blue to orange.
Copyright 2022 Meteo Romania / meteoblue.

Current satellite and rain images for Niš, Serbia

The location marker is placed on Niš. [More]

The real-time satellite image combines visible light during daytime with infrared radiation during nighttime. At night, the image is not dark as infrared radiation can detect temperature differences. Unfortunately, low clouds and fog are difficult to distinguish from ground temperatures and thus can be almost invisible during the night. Meteosat satellite images for Europe are updated in real-time every 5 minutes. GOES-16/GOES-17 (North & South America) and Himawari (Asia) images update every 10 minutes.

Precipitation is estimated from radar and satellites. Precipitation estimates from satellites are less accurate at night than during daytime. Orange crosses mark places where lightning was detected (over Europe).

Copyright 2022 EUMETSAT / meteoblue. Lightning data provided by nowcast.

Back to top